Time;durP1;ratioP1;P1;durP2;ratioP2;P2;SDS_P1;SDS_P2;PMS_P1;PMS_P2;Temp;Humidity;BMP_temperature;BMP_pressure;BME280_temperature;BME280_humidity;BME280_pressure;Samples;Min_cycle;Max_cycle;Signal;HPM_P1;HPM_P2
2022/09/27 00:01:34;;;;;;;18.37;16.48;;;;;;;10.89;78.23;99282.41;3432965;80;21132;-86
2022/09/27 00:06:29;;;;;;;19.67;17.57;;;;;;;10.90;78.24;99293.25;3435504;80;20913;-85
2022/09/27 00:11:31;;;;;;;17.17;15.45;;;;;;;10.91;78.31;99280.69;3390331;81;20932;-85
2022/09/27 00:16:25;;;;;;;17.95;15.75;;;;;;;10.91;78.30;99276.80;3439963;81;20928;-85
2022/09/27 00:21:17;;;;;;;18.42;16.37;;;;;;;10.92;78.54;99277.20;3438635;81;20915;-85
2022/09/27 00:26:12;;;;;;;19.40;17.32;;;;;;;10.94;78.60;99279.34;3426637;81;21113;-85
2022/09/27 00:31:03;;;;;;;18.42;16.52;;;;;;;10.95;78.67;99266.78;3438017;81;20891;-85
2022/09/27 00:35:54;;;;;;;20.95;18.73;;;;;;;10.98;78.75;99261.57;3397733;81;20935;-85
2022/09/27 00:40:47;;;;;;;19.02;17.12;;;;;;;10.98;78.88;99264.17;3443961;80;20941;-85
2022/09/27 00:45:38;;;;;;;18.27;16.37;;;;;;;10.99;78.86;99258.52;3404360;81;20903;-86
2022/09/27 00:50:36;;;;;;;18.87;16.97;;;;;;;10.99;79.03;99254.63;3450412;81;22698;-85
2022/09/27 00:55:36;;;;;;;18.75;16.80;;;;;;;10.99;79.13;99254.17;3440831;81;20957;-85
2022/09/27 01:00:27;;;;;;;20.02;17.92;;;;;;;11.00;79.27;99251.12;3452704;82;21049;-85
2022/09/27 01:05:22;;;;;;;20.50;18.35;;;;;;;11.02;79.37;99237.70;3418370;82;20912;-85
2022/09/27 01:10:15;;;;;;;18.42;16.60;;;;;;;11.03;79.36;99236.36;3414454;81;21243;-85
2022/09/27 01:15:45;;;;;;;18.52;16.67;;;;;;;11.05;79.58;99233.33;3441802;82;22405;-85
2022/09/27 01:21:03;;;;;;;19.00;17.02;;;;;;;11.05;79.55;99232.03;3475466;81;20865;-85
2022/09/27 01:26:00;;;;;;;19.75;17.73;;;;;;;11.06;79.70;99223.34;3454073;82;21050;-85
2022/09/27 01:31:05;;;;;;;20.50;17.45;;;;;;;11.09;79.82;99214.66;3506007;80;20924;-85
2022/09/27 01:36:17;;;;;;;18.65;16.77;;;;;;;11.13;80.03;99219.39;3487737;81;21012;-85
2022/09/27 01:41:26;;;;;;;20.65;18.52;;;;;;;11.12;79.86;99223.72;3518583;80;21205;-85
2022/09/27 01:46:44;;;;;;;23.47;18.98;;;;;;;11.15;80.18;99216.34;3477848;80;20876;-85
2022/09/27 01:51:51;;;;;;;20.12;17.90;;;;;;;11.18;80.25;99213.72;3491440;81;20920;-85
2022/09/27 01:56:47;;;;;;;19.35;17.23;;;;;;;11.20;80.36;99212.81;3484491;80;20944;-86
2022/09/27 02:01:45;;;;;;;20.77;18.60;;;;;;;11.23;80.50;99214.50;3423537;82;20961;-86
2022/09/27 02:06:44;;;;;;;19.30;17.20;;;;;;;11.26;80.65;99210.14;3429528;82;21123;-85
2022/09/27 02:11:48;;;;;;;19.12;17.05;;;;;;;11.30;80.64;99209.66;3401141;81;20950;-85
2022/09/27 02:16:50;;;;;;;20.75;17.55;;;;;;;11.29;80.66;99213.61;3382577;82;20907;-86
2022/09/27 02:21:50;;;;;;;22.30;19.95;;;;;;;11.31;80.91;99205.34;3396478;83;20901;-85
2022/09/27 02:26:45;;;;;;;22.70;19.90;;;;;;;11.35;81.04;99198.77;3417585;82;20883;-86
2022/09/27 02:31:37;;;;;;;25.77;20.68;;;;;;;11.37;81.15;99197.02;3386742;83;21107;-85
2022/09/27 02:36:29;;;;;;;27.32;21.42;;;;;;;11.39;81.24;99191.80;3416201;83;20918;-85
2022/09/27 02:41:22;;;;;;;21.45;18.85;;;;;;;11.40;81.30;99190.48;3376288;83;20910;-85
2022/09/27 02:46:34;;;;;;;36.15;28.85;;;;;;;11.41;81.36;99189.62;3404426;83;20959;-85
2022/09/27 02:51:49;;;;;;;44.85;32.78;;;;;;;11.44;81.62;99193.47;3423219;82;20959;-85
2022/09/27 02:57:02;;;;;;;36.85;29.52;;;;;;;11.47;81.86;99185.23;3422189;82;21162;-85
2022/09/27 03:02:32;;;;;;;51.83;37.00;;;;;;;11.48;81.86;99180.43;3412181;82;20920;-86
2022/09/27 03:07:31;;;;;;;52.43;36.58;;;;;;;11.51;82.04;99178.66;3466016;81;20944;-86
2022/09/27 03:12:26;;;;;;;52.48;37.83;;;;;;;11.54;82.18;99173.42;3523790;79;20896;-86
2022/09/27 03:17:18;;;;;;;43.55;35.70;;;;;;;11.56;82.19;99170.81;3505451;80;20927;-85
2022/09/27 03:22:20;;;;;;;47.20;35.63;;;;;;;11.57;82.22;99172.51;3376719;82;21294;-85
2022/09/27 03:27:11;;;;;;;43.90;30.82;;;;;;;11.58;82.21;99166.44;3341763;82;21070;-86
2022/09/27 03:32:03;;;;;;;46.85;34.65;;;;;;;11.59;82.25;99170.78;3351864;82;20968;-85
2022/09/27 03:37:14;;;;;;;42.48;34.80;;;;;;;11.60;82.33;99167.27;3405476;82;20993;-85
2022/09/27 03:42:05;;;;;;;45.33;33.02;;;;;;;11.60;82.32;99167.27;3354856;82;20909;-85
2022/09/27 03:46:57;;;;;;;42.98;33.00;;;;;;;11.60;82.43;99158.17;3404632;82;21155;-85
2022/09/27 03:51:49;;;;;;;40.48;32.78;;;;;;;11.58;82.39;99158.62;3384191;82;20997;-86
2022/09/27 03:56:40;;;;;;;45.92;34.67;;;;;;;11.59;82.48;99147.35;3426043;79;20970;-86
2022/09/27 04:01:34;;;;;;;45.08;32.10;;;;;;;11.57;82.45;99136.06;3503977;79;20930;-86
2022/09/27 04:06:27;;;;;;;40.43;33.13;;;;;;;11.58;82.48;99133.45;3525671;79;20938;-85
2022/09/27 04:11:18;;;;;;;44.80;32.28;;;;;;;11.56;82.51;99126.55;3497539;80;21154;-86
2022/09/27 04:16:10;;;;;;;43.98;33.30;;;;;;;11.54;82.57;99130.92;3539024;80;20930;-85
2022/09/27 04:21:12;;;;;;;41.48;29.27;;;;;;;11.53;82.59;99130.48;3449614;80;20880;-86
2022/09/27 04:26:06;;;;;;;39.65;29.90;;;;;;;11.53;82.67;99127.89;3492951;79;21015;-85
2022/09/27 04:31:05;;;;;;;39.27;28.98;;;;;;;11.54;82.70;99117.91;3539581;80;20856;-85
2022/09/27 04:41:15;;;;;;;37.98;27.87;;;;;;;11.50;82.80;99114.91;3553153;79;20944;-85
2022/09/27 04:46:06;;;;;;;34.90;27.35;;;;;;;11.49;82.89;99112.75;3522393;80;20891;-86
2022/09/27 04:51:01;;;;;;;34.98;26.57;;;;;;;11.49;82.92;99117.95;3532188;80;21130;-86
2022/09/27 04:55:53;;;;;;;34.78;26.95;;;;;;;11.50;82.99;99133.13;3485947;80;20895;-86
2022/09/27 05:00:46;;;;;;;34.65;25.10;;;;;;;11.49;82.90;99128.36;3505596;79;22757;-86
2022/09/27 05:05:56;;;;;;;37.10;29.05;;;;;;;11.51;83.05;99134.86;3516267;79;20911;-85
2022/09/27 05:10:48;;;;;;;35.63;27.27;;;;;;;11.49;83.08;99125.77;3492221;79;20934;-86
2022/09/27 05:15:40;;;;;;;41.00;26.73;;;;;;;11.52;83.13;99131.36;3482309;80;21099;-86
2022/09/27 05:20:49;;;;;;;36.55;26.42;;;;;;;11.55;83.19;99130.02;3428597;80;20894;-87
2022/09/27 05:25:42;;;;;;;37.48;26.62;;;;;;;11.56;83.18;99129.16;3444676;80;20872;-86
2022/09/27 05:30:35;;;;;;;34.80;24.65;;;;;;;11.57;83.19;99123.05;3432081;80;20981;-87
2022/09/27 05:35:34;;;;;;;40.38;27.27;;;;;;;11.57;83.25;99130.86;3447241;80;20864;-87
2022/09/27 05:40:28;;;;;;;39.40;26.15;;;;;;;11.58;83.30;99135.20;3476090;80;20926;-87
2022/09/27 05:45:21;;;;;;;38.35;27.13;;;;;;;11.62;83.30;99125.16;3470371;81;20894;-87
2022/09/27 05:50:13;;;;;;;36.40;23.47;;;;;;;11.63;83.27;99124.30;3419008;80;21257;-85
2022/09/27 05:55:05;;;;;;;36.15;24.07;;;;;;;11.67;83.20;99128.57;3445383;81;20905;-87
2022/09/27 05:59:56;;;;;;;29.77;21.00;;;;;;;11.68;83.21;99117.30;3409268;81;20930;-87
2022/09/27 06:04:49;;;;;;;27.13;20.68;;;;;;;11.74;83.13;99116.34;3433673;80;20889;-86
2022/09/27 06:09:58;;;;;;;28.02;20.30;;;;;;;11.76;82.82;99114.12;3453510;81;20901;-86
2022/09/27 06:14:50;;;;;;;25.15;19.27;;;;;;;11.81;82.81;99112.33;3510754;80;21037;-87
2022/09/27 06:19:43;;;;;;;27.32;19.23;;;;;;;11.80;82.73;99117.13;3466039;81;20934;-87
2022/09/27 06:24:34;;;;;;;21.62;16.42;;;;;;;11.83;82.81;99117.06;3445184;81;20908;-86
2022/09/27 06:29:28;;;;;;;20.08;15.85;;;;;;;11.86;82.69;99115.30;3418540;80;20897;-87
2022/09/27 06:34:21;;;;;;;20.52;15.90;;;;;;;11.91;82.70;99125.25;3420324;82;20926;-87
2022/09/27 06:39:12;;;;;;;18.30;15.28;;;;;;;11.98;82.51;99120.38;3437517;82;21276;-87
2022/09/27 06:44:16;;;;;;;19.42;16.15;;;;;;;12.05;82.52;99120.70;3452967;82;21347;-86
2022/09/27 06:49:11;;;;;;;18.55;14.47;;;;;;;12.14;82.47;99119.71;3434444;81;20927;-86
2022/09/27 06:54:04;;;;;;;19.87;15.50;;;;;;;12.20;82.19;99116.58;3412994;82;21052;-87
2022/09/27 07:04:10;;;;;;;21.85;17.10;;;;;;;12.31;82.36;99126.84;3446531;82;20871;-90
2022/09/27 07:09:20;;;;;;;25.48;16.95;;;;;;;12.35;82.36;99130.25;3396222;82;20920;-92
2022/09/27 07:14:11;;;;;;;22.52;17.07;;;;;;;12.38;82.29;99131.52;3375342;83;20919;-90
2022/09/27 07:19:04;;;;;;;23.07;18.32;;;;;;;12.44;82.32;99126.19;3302567;83;21190;-88
2022/09/27 07:23:56;;;;;;;26.37;18.40;;;;;;;12.47;82.19;99113.12;3348321;84;20936;-90
2022/09/27 07:28:47;;;;;;;24.27;18.10;;;;;;;12.52;82.28;99106.51;3345559;83;21097;-90
2022/09/27 07:33:40;;;;;;;26.97;18.20;;;;;;;12.58;82.25;99121.61;3359938;83;20931;-86
2022/09/27 07:38:31;;;;;;;23.38;17.40;;;;;;;12.63;82.24;99129.38;3374943;83;20926;-86
2022/09/27 07:43:23;;;;;;;25.97;17.75;;;;;;;12.68;82.16;99135.80;3399220;83;21175;-89
2022/09/27 07:48:16;;;;;;;24.27;18.07;;;;;;;12.66;82.26;99141.48;3374301;83;20940;-90
2022/09/27 07:53:25;;;;;;;21.97;16.77;;;;;;;12.66;82.20;99140.18;3363005;84;21113;-90
2022/09/27 07:58:21;;;;;;;21.97;17.15;;;;;;;12.83;82.35;99143.83;3365641;83;20995;-90
2022/09/27 08:03:16;;;;;;;23.12;16.67;;;;;;;12.89;82.16;99143.25;3332040;84;20934;-87
2022/09/27 08:08:08;;;;;;;21.02;17.42;;;;;;;12.98;82.06;99135.70;3344038;85;20956;-92
2022/09/27 08:13:04;;;;;;;23.18;18.48;;;;;;;13.06;81.91;99136.89;3344292;85;21384;-91
2022/09/27 08:17:55;;;;;;;21.15;16.90;;;;;;;13.07;81.74;99143.81;3345541;83;21251;-90
2022/09/27 08:22:48;;;;;;;19.60;16.65;;;;;;;13.19;81.63;99114.88;3343237;84;20915;-87
2022/09/27 08:27:41;;;;;;;19.80;15.85;;;;;;;13.44;81.57;99111.38;3365012;84;20931;-89
2022/09/27 08:32:38;;;;;;;17.13;15.07;;;;;;;13.63;81.13;99109.25;3319226;83;20940;-88
2022/09/27 08:37:29;;;;;;;16.45;14.78;;;;;;;13.65;80.79;99116.60;3363887;85;20921;-90
2022/09/27 08:42:44;;;;;;;16.25;14.58;;;;;;;13.73;80.81;99107.29;3374155;83;21191;-91
2022/09/27 08:47:43;;;;;;;15.58;13.98;;;;;;;13.87;80.28;99109.61;3366048;83;20979;-91
2022/09/27 08:52:56;;;;;;;14.43;12.93;;;;;;;14.07;80.14;99106.54;3397111;83;20942;-91
2022/09/27 08:57:53;;;;;;;14.58;13.05;;;;;;;14.32;79.94;99109.89;3411214;82;20963;-92
2022/09/27 09:02:45;;;;;;;14.15;12.82;;;;;;;14.49;79.18;99124.27;3385281;83;20909;-93
2022/09/27 09:08:00;;;;;;;12.28;11.08;;;;;;;14.49;79.15;99126.89;3367796;82;21976;-91
2022/09/27 09:12:57;;;;;;;12.40;11.20;;;;;;;14.62;78.56;99133.16;3403621;81;20907;-95
2022/09/27 09:18:04;;;;;;;12.05;10.85;;;;;;;14.61;78.97;99136.66;3446135;81;20915;-88
2022/09/27 09:23:25;;;;;;;11.88;10.78;;;;;;;14.50;78.59;99129.05;3409260;82;20916;-89
2022/09/27 09:28:40;;;;;;;11.90;10.82;;;;;;;14.40;78.70;99132.34;3389637;83;20891;-92
2022/09/27 09:33:40;;;;;;;11.93;10.82;;;;;;;14.42;79.03;99129.70;3375592;83;22550;-90
2022/09/27 09:38:56;;;;;;;10.50;9.55;;;;;;;14.63;78.54;99125.70;3380153;83;21054;-95
2022/09/27 09:44:18;;;;;;;10.20;9.28;;;;;;;14.72;78.36;99116.34;3409823;83;21290;-96
2022/09/27 09:49:29;;;;;;;8.60;7.90;;;;;;;14.77;77.87;99111.86;3378979;84;21097;-96
2022/09/27 09:54:33;;;;;;;9.68;8.88;;;;;;;14.90;77.44;99114.12;3360788;84;20925;-96
2022/09/27 09:59:46;;;;;;;9.95;9.08;;;;;;;14.89;76.74;99107.20;3381544;84;21111;-95
2022/09/27 10:04:38;;;;;;;10.53;9.43;;;;;;;14.94;76.48;99117.95;3370101;83;20946;-93
2022/09/27 10:09:30;;;;;;;10.55;9.53;;;;;;;14.89;76.80;99110.66;3450110;81;20940;-91
2022/09/27 10:14:35;;;;;;;11.35;9.38;;;;;;;14.96;76.59;99098.28;3572763;78;20989;-93
2022/09/27 10:19:32;;;;;;;9.95;9.05;;;;;;;15.10;76.17;99098.77;3507905;81;20888;-89
2022/09/27 10:24:25;;;;;;;10.80;9.65;;;;;;;15.15;75.59;99098.62;3548225;78;21164;-94
2022/09/27 10:29:36;;;;;;;9.73;8.83;;;;;;;15.15;75.74;99093.39;3623654;78;20988;-92
2022/09/27 10:34:36;;;;;;;9.70;8.90;;;;;;;15.09;75.79;99089.19;3428313;82;20947;-93
2022/09/27 10:39:28;;;;;;;10.08;9.18;;;;;;;15.15;75.19;99084.22;3469680;80;20915;-92
2022/09/27 10:44:30;;;;;;;8.05;7.25;;;;;;;15.35;75.22;99069.29;3516759;80;20935;-96
2022/09/27 10:49:32;;;;;;;8.75;8.05;;;;;;;15.68;74.89;99066.10;3592244;78;20879;-91
2022/09/27 10:54:36;;;;;;;8.73;7.97;;;;;;;15.70;73.85;99055.58;3594567;78;20914;-89
2022/09/27 10:59:32;;;;;;;9.40;8.60;;;;;;;15.68;72.78;99060.02;3595526;78;20930;-94
2022/09/27 11:04:36;;;;;;;10.43;9.43;;;;;;;15.67;72.73;99059.17;3453857;82;20913;-94
2022/09/27 11:09:28;;;;;;;9.88;9.03;;;;;;;15.76;72.99;99055.45;3418046;82;20845;-95
2022/09/27 11:14:24;;;;;;;9.28;8.15;;;;;;;15.69;72.25;99047.34;3406647;82;20952;-94
2022/09/27 11:19:37;;;;;;;9.48;8.68;;;;;;;15.84;72.66;99042.95;3436842;81;20908;-96
2022/09/27 11:24:59;;;;;;;8.63;7.90;;;;;;;15.84;71.93;99049.50;3442368;79;20940;-93
2022/09/27 11:30:14;;;;;;;7.87;7.17;;;;;;;15.92;72.29;99039.64;3443028;83;20889;-96
2022/09/27 11:35:31;;;;;;;10.35;9.45;;;;;;;15.88;71.70;99027.55;3421019;81;21144;-93
2022/09/27 11:40:49;;;;;;;11.15;10.05;;;;;;;15.85;72.14;99030.27;3398057;81;21171;-92
2022/09/27 11:46:01;;;;;;;13.30;11.53;;;;;;;15.74;71.95;99027.06;3437414;80;20958;-96
2022/09/27 11:51:28;;;;;;;12.00;10.85;;;;;;;15.68;71.93;99022.03;3446852;80;21056;-90
2022/09/27 11:56:54;;;;;;;10.80;9.80;;;;;;;15.64;71.65;99024.73;3456959;81;20967;-95
2022/09/27 12:02:06;;;;;;;9.53;8.55;;;;;;;15.59;71.98;99024.02;3489915;80;21098;-92
2022/09/27 12:07:19;;;;;;;10.08;8.83;;;;;;;15.44;72.14;99020.56;3518446;79;21144;-87
2022/09/27 12:12:25;;;;;;;10.10;9.10;;;;;;;15.30;72.29;99023.59;3476202;81;20936;-85
2022/09/27 12:17:27;;;;;;;10.72;9.73;;;;;;;15.21;72.50;99015.55;3426882;82;21118;-86
2022/09/27 12:22:31;;;;;;;10.40;9.53;;;;;;;15.22;72.36;99009.42;3440168;82;20920;-85
2022/09/27 12:27:40;;;;;;;9.95;9.05;;;;;;;15.23;72.58;99001.95;3432298;82;20916;-86
2022/09/27 12:32:47;;;;;;;9.23;8.30;;;;;;;15.23;72.57;99003.27;3411212;82;20932;-86
2022/09/27 12:37:49;;;;;;;10.58;9.68;;;;;;;15.31;71.92;98990.40;3440053;82;20893;-86
2022/09/27 12:43:08;;;;;;;9.75;8.85;;;;;;;15.39;72.15;98995.81;3431242;83;20920;-95
2022/09/27 12:48:39;;;;;;;10.05;9.25;;;;;;;15.47;72.17;98999.53;3447744;82;21019;-92
2022/09/27 12:53:57;;;;;;;9.30;8.48;;;;;;;15.50;72.28;98987.63;3406458;83;20908;-93
2022/09/27 12:58:55;;;;;;;;;;;;;;;15.63;71.77;98977.20;3423455;83;21062;-91
2022/09/27 13:04:09;;;;;;;9.28;8.43;;;;;;;15.80;71.25;98969.28;3434304;82;20130;-90
2022/09/27 13:09:18;;;;;;;9.45;8.65;;;;;;;16.12;71.14;98969.98;3447185;81;20916;-89
2022/09/27 13:14:21;;;;;;;9.73;8.88;;;;;;;16.51;70.16;98956.41;3450091;82;20906;-93
2022/09/27 13:19:41;;;;;;;8.30;7.67;;;;;;;16.73;69.66;98963.90;3409049;82;20914;-92
2022/09/27 13:24:45;;;;;;;8.05;7.45;;;;;;;16.72;69.35;98951.71;3464815;81;21119;-85
2022/09/27 13:29:39;;;;;;;7.22;6.50;;;;;;;16.52;69.20;98952.86;3442159;80;20923;-91
2022/09/27 13:34:50;;;;;;;8.15;7.42;;;;;;;16.36;69.29;98950.80;3420600;82;20885;-91
2022/09/27 13:39:46;;;;;;;9.90;7.05;;;;;;;16.29;69.25;98942.71;3475134;82;20916;-91
2022/09/27 13:45:23;;;;;;;7.70;7.03;;;;;;;16.71;69.29;98934.70;3435767;82;21007;-91
2022/09/27 13:50:29;;;;;;;7.42;6.78;;;;;;;16.83;69.57;98928.13;3466112;82;21130;-93
2022/09/27 13:55:48;;;;;;;7.30;6.70;;;;;;;16.72;68.64;98921.53;3463455;82;21103;-92
2022/09/27 14:00:54;;;;;;;7.33;6.80;;;;;;;16.48;68.86;98919.80;3480886;82;20889;-90
2022/09/27 14:06:00;;;;;;;8.08;7.28;;;;;;;16.30;68.78;98924.77;3454280;82;20928;-89
2022/09/27 14:10:54;;;;;;;8.68;7.40;;;;;;;16.19;68.82;98913.81;3472028;80;20915;-96
2022/09/27 14:15:47;;;;;;;7.12;6.53;;;;;;;16.20;69.34;98908.95;3406626;82;21155;-91
2022/09/27 14:20:43;;;;;;;7.33;6.72;;;;;;;16.13;69.24;98916.63;3426213;82;20913;-91
2022/09/27 14:25:43;;;;;;;7.60;6.92;;;;;;;16.20;69.18;98907.64;3456100;82;20941;-91
2022/09/27 14:30:36;;;;;;;9.05;6.75;;;;;;;16.13;69.15;98903.52;3447483;82;20917;-92
2022/09/27 14:41:00;;;;;;;9.10;6.62;;;;;;;15.91;69.92;98913.89;3478777;81;21211;-92
2022/09/27 14:46:00;;;;;;;7.83;7.12;;;;;;;15.75;70.21;98911.77;3446305;81;21149;-93
2022/09/27 14:51:18;;;;;;;8.45;6.95;;;;;;;15.70;71.00;98911.48;3478963;80;20971;-91
2022/09/27 14:56:16;;;;;;;14.38;8.35;;;;;;;15.62;71.15;98900.81;3468257;82;20924;-92
2022/09/27 15:01:14;;;;;;;8.00;7.00;;;;;;;15.50;71.46;98899.89;3443992;82;20961;-92
2022/09/27 15:06:05;;;;;;;10.10;8.50;;;;;;;15.40;71.82;98905.89;3465126;82;21290;-88
2022/09/27 15:10:57;;;;;;;7.95;7.22;;;;;;;15.27;71.91;98907.16;3374194;81;20952;-88
2022/09/27 15:15:49;;;;;;;8.48;7.78;;;;;;;15.19;71.84;98898.70;3404325;82;20901;-87
2022/09/27 15:20:46;;;;;;;8.20;7.00;;;;;;;15.11;71.49;98902.84;3441781;82;20884;-88
2022/09/27 15:25:41;;;;;;;8.30;7.60;;;;;;;15.04;71.83;98903.94;3469573;81;21082;-89
2022/09/27 15:30:53;;;;;;;9.98;8.50;;;;;;;14.93;72.19;98899.48;3412407;82;21027;-88
2022/09/27 15:35:52;;;;;;;8.25;7.40;;;;;;;14.82;72.00;98898.03;3434666;82;20892;-94
2022/09/27 15:40:51;;;;;;;9.23;8.38;;;;;;;14.74;72.08;98901.80;3439442;82;20916;-92
2022/09/27 15:45:49;;;;;;;8.18;7.47;;;;;;;14.68;72.36;98900.20;3447664;80;21005;-85
2022/09/27 15:50:41;;;;;;;7.92;7.22;;;;;;;14.63;72.52;98899.47;3411506;82;21072;-85
2022/09/27 15:55:36;;;;;;;8.15;7.45;;;;;;;14.57;72.88;98890.47;3402029;83;21134;-85
2022/09/27 16:00:28;;;;;;;9.05;8.25;;;;;;;14.49;72.87;98887.63;3421976;81;20987;-85
2022/09/27 16:05:26;;;;;;;13.60;7.67;;;;;;;14.41;72.39;98881.73;3396616;82;21141;-85
2022/09/27 16:10:18;;;;;;;7.72;7.10;;;;;;;14.35;72.69;98881.92;3451160;82;21280;-84
2022/09/27 16:15:11;;;;;;;8.93;8.05;;;;;;;14.24;72.96;98873.53;3453279;82;20928;-85
2022/09/27 16:20:04;;;;;;;9.30;8.38;;;;;;;14.10;72.93;98879.12;3454929;82;21338;-84
2022/09/27 16:24:55;;;;;;;9.08;8.18;;;;;;;14.00;73.08;98877.19;3385091;82;20934;-85
2022/09/27 16:29:46;;;;;;;9.68;8.70;;;;;;;13.84;73.22;98871.95;3427556;81;20925;-84
2022/09/27 16:34:37;;;;;;;9.33;8.38;;;;;;;13.69;73.53;98881.05;3439739;82;20905;-84
2022/09/27 16:39:28;;;;;;;9.18;8.38;;;;;;;13.57;73.90;98879.59;3439351;82;20935;-84
2022/09/27 16:44:19;;;;;;;12.85;9.33;;;;;;;13.44;74.14;98886.86;3410886;82;21139;-84
2022/09/27 16:54:21;;;;;;;10.30;9.40;;;;;;;13.20;74.69;98885.67;3399985;81;36766;-84
2022/09/27 16:59:12;;;;;;;19.07;10.37;;;;;;;13.11;74.78;98880.63;3494779;81;21420;-84
2022/09/27 17:04:04;;;;;;;9.98;8.95;;;;;;;13.04;75.16;98884.27;3419443;80;21511;-84
2022/09/27 17:08:55;;;;;;;9.85;8.98;;;;;;;12.94;75.20;98888.39;3373265;80;20937;-84
2022/09/27 17:13:48;;;;;;;9.70;8.80;;;;;;;12.83;75.36;98880.41;3328069;83;20865;-84
2022/09/27 17:18:40;;;;;;;10.53;9.53;;;;;;;12.70;75.30;98879.81;3358012;83;20983;-84
2022/09/27 17:23:31;;;;;;;12.65;11.38;;;;;;;12.59;75.69;98876.98;3343981;83;20971;-84
2022/09/27 17:28:23;;;;;;;10.85;9.85;;;;;;;12.48;75.87;98885.44;3332528;83;20951;-85
2022/09/27 17:33:14;;;;;;;11.60;10.38;;;;;;;12.37;75.81;98884.80;3392093;82;21108;-84
2022/09/27 17:38:06;;;;;;;11.40;9.83;;;;;;;12.22;75.98;98894.23;3312766;83;20944;-84
2022/09/27 17:42:57;;;;;;;12.03;10.82;;;;;;;12.07;76.05;98898.81;3350774;83;20967;-84
2022/09/27 17:52:58;;;;;;;11.30;10.15;;;;;;;11.81;76.37;98893.59;3323107;83;20944;-84
2022/09/27 17:57:50;;;;;;;10.95;9.95;;;;;;;11.68;76.44;98888.20;3306531;83;21306;-84
2022/09/27 18:02:41;;;;;;;11.33;10.20;;;;;;;11.58;76.44;98895.73;3335348;83;20940;-86
2022/09/27 18:07:32;;;;;;;13.03;11.73;;;;;;;11.44;76.59;98888.98;3336077;82;21110;-86
2022/09/27 18:12:33;;;;;;;15.63;13.28;;;;;;;11.31;76.77;98890.08;3355749;83;20957;-86
2022/09/27 18:17:26;;;;;;;14.85;13.35;;;;;;;11.21;76.95;98889.79;3419861;81;20920;-86
2022/09/27 18:22:19;;;;;;;15.63;13.98;;;;;;;11.12;76.79;98886.88;3588789;78;21168;-86
2022/09/27 18:27:14;;;;;;;17.90;15.23;;;;;;;11.03;76.80;98889.16;3517766;78;20947;-86
2022/09/27 18:32:02;;;;;;;21.00;18.80;;;;;;;10.97;76.86;98885.36;3546916;78;20926;-86
2022/09/27 18:36:54;;;;;;;23.38;18.92;;;;;;;10.89;77.01;98896.30;3501444;78;20915;-86
2022/09/27 18:41:51;;;;;;;21.55;19.10;;;;;;;10.84;77.27;98897.67;3488035;78;20931;-86
2022/09/27 18:46:39;;;;;;;20.68;18.15;;;;;;;10.83;77.43;98891.19;3515937;78;20884;-86
2022/09/27 18:51:31;;;;;;;19.62;17.45;;;;;;;10.81;77.51;98885.16;3488096;78;20951;-86
2022/09/27 18:56:23;;;;;;;20.12;18.07;;;;;;;10.79;77.70;98893.42;3494086;78;20907;-86
2022/09/27 19:01:15;;;;;;;20.00;17.23;;;;;;;10.77;77.88;98887.39;3472206;80;20923;-86
